createdAt,value
2019-02-22T00:02:19.920Z,25.90
2019-02-22T00:04:49.494Z,14.93
2019-02-22T00:07:19.084Z,20.73
2019-02-22T00:09:49.716Z,20.87
2019-02-22T00:12:19.528Z,17.07
2019-02-22T00:14:49.099Z,16.63
2019-02-22T00:17:18.702Z,23.40
2019-02-22T00:19:48.703Z,19.47
2019-02-22T00:22:18.480Z,21.00
2019-02-22T00:24:48.052Z,18.57
2019-02-22T00:27:17.685Z,19.53
2019-02-22T00:29:47.240Z,19.17
2019-02-22T00:32:16.782Z,22.57
2019-02-22T00:34:46.391Z,22.97
2019-02-22T00:37:16.111Z,23.87
2019-02-22T00:39:45.716Z,19.40
2019-02-22T00:42:15.277Z,20.00
2019-02-22T00:44:44.970Z,25.27
2019-02-22T00:47:14.503Z,18.77
2019-02-22T00:49:44.054Z,17.57
2019-02-22T00:52:13.674Z,20.17
2019-02-22T00:54:43.222Z,20.80
2019-02-22T00:57:12.906Z,15.93
2019-02-22T00:59:42.459Z,21.03
2019-02-22T01:02:12.085Z,18.63
2019-02-22T01:04:41.699Z,17.67
2019-02-22T01:07:11.343Z,16.40
2019-02-22T01:09:41.022Z,20.93
2019-02-22T01:12:10.549Z,17.47
2019-02-22T01:14:40.232Z,15.47
2019-02-22T01:17:09.866Z,20.10
2019-02-22T01:19:39.496Z,21.10
2019-02-22T01:22:09.094Z,15.83
2019-02-22T01:24:38.677Z,19.37
2019-02-22T01:27:08.234Z,16.33
2019-02-22T01:29:37.819Z,19.70
2019-02-22T01:32:07.528Z,18.70
2019-02-22T01:34:37.292Z,19.70
2019-02-22T01:37:06.909Z,18.50
2019-02-22T01:39:36.526Z,18.33
2019-02-22T01:42:06.171Z,21.23
2019-02-22T01:44:35.926Z,18.80
2019-02-22T01:47:05.545Z,21.13
2019-02-22T01:49:35.187Z,19.80
2019-02-22T01:52:04.730Z,17.37
2019-02-22T01:54:34.574Z,19.93
2019-02-22T01:57:04.287Z,18.20
2019-02-22T01:59:33.827Z,13.83
2019-02-22T02:02:03.407Z,16.23
2019-02-22T02:04:32.991Z,17.40
2019-02-22T02:07:02.719Z,18.30
2019-02-22T02:09:32.368Z,18.27
2019-02-22T02:12:02.224Z,25.20
2019-02-22T02:14:31.751Z,23.23
2019-02-22T02:17:01.358Z,21.50
2019-02-22T02:19:30.991Z,20.07
2019-02-22T02:22:00.665Z,23.60
2019-02-22T02:24:30.409Z,22.47
2019-02-22T02:26:59.979Z,18.27
2019-02-22T02:29:29.651Z,22.90
2019-02-22T02:31:59.203Z,28.70
2019-02-22T02:34:28.910Z,23.33
2019-02-22T02:36:58.438Z,18.30
2019-02-22T02:39:27.992Z,18.67
2019-02-22T02:41:57.657Z,21.40
2019-02-22T02:44:27.367Z,25.77
2019-02-22T02:46:57.152Z,18.33
2019-02-22T02:49:26.865Z,30.07
2019-02-22T02:51:56.474Z,20.43
2019-02-22T02:54:26.166Z,20.53
2019-02-22T02:56:55.767Z,22.80
2019-02-22T02:59:25.395Z,16.33
2019-02-22T03:01:54.956Z,17.40
2019-02-22T03:04:24.553Z,18.07
2019-02-22T03:07:15.765Z,17.57
2019-02-22T03:09:45.430Z,18.87
2019-02-22T03:12:15.017Z,18.33
2019-02-22T03:14:44.549Z,19.03
2019-02-22T03:17:14.263Z,15.53
2019-02-22T03:19:43.925Z,14.87
2019-02-22T03:22:13.522Z,17.00
2019-02-22T03:24:43.181Z,18.50
2019-02-22T03:27:12.728Z,18.90
2019-02-22T03:29:42.305Z,22.30
2019-02-22T03:32:11.891Z,18.23
2019-02-22T03:34:41.432Z,25.03
2019-02-22T03:37:11.108Z,22.23
2019-02-22T03:39:40.762Z,22.27
2019-02-22T03:42:10.433Z,16.57
2019-02-22T03:44:40.104Z,17.20
2019-02-22T03:47:09.662Z,17.60
2019-02-22T03:49:39.266Z,17.17
2019-02-22T03:52:31.460Z,13.83
2019-02-22T03:55:01.093Z,15.03
2019-02-22T03:57:30.659Z,15.60
2019-02-22T04:00:00.361Z,20.33
2019-02-22T04:02:30.158Z,20.50
2019-02-22T04:04:59.807Z,18.80
2019-02-22T04:07:29.371Z,14.77
2019-02-22T04:09:59.149Z,15.73
2019-02-22T04:12:28.771Z,16.57
2019-02-22T04:14:58.467Z,16.40
2019-02-22T04:17:28.023Z,19.23
2019-02-22T04:19:57.540Z,17.40
2019-02-22T04:22:27.073Z,22.33
2019-02-22T04:24:56.693Z,19.13
2019-02-22T04:27:26.308Z,15.20
2019-02-22T04:29:56.017Z,17.87
2019-02-22T04:32:25.569Z,18.13
2019-02-22T04:34:55.119Z,20.33
2019-02-22T04:37:24.673Z,17.10
2019-02-22T04:39:54.279Z,19.83
2019-02-22T04:42:23.872Z,26.10
2019-02-22T04:44:53.427Z,23.93
2019-02-22T04:47:23.161Z,15.60
2019-02-22T04:49:52.745Z,21.00
2019-02-22T04:52:22.283Z,66.60
2019-02-22T04:54:52.086Z,71.77
2019-02-22T04:57:21.645Z,31.53
2019-02-22T04:59:51.259Z,30.37
2019-02-22T05:02:20.928Z,37.10
2019-02-22T05:04:50.689Z,34.87
2019-02-22T05:07:20.272Z,30.33
2019-02-22T05:09:49.900Z,27.43
2019-02-22T05:12:19.586Z,23.97
2019-02-22T05:14:49.254Z,27.43
2019-02-22T05:17:18.889Z,30.30
2019-02-22T05:19:48.473Z,34.30
2019-02-22T05:22:18.061Z,30.83
2019-02-22T05:24:47.601Z,30.13
2019-02-22T05:27:17.326Z,25.17
2019-02-22T05:29:46.916Z,35.03
2019-02-22T05:32:16.540Z,147.70
2019-02-22T05:34:46.222Z,102.40
2019-02-22T05:37:15.788Z,53.77
2019-02-22T05:39:45.365Z,51.63
2019-02-22T05:42:22.674Z,43.23
2019-02-22T05:44:46.398Z,83.97
2019-02-22T05:47:16.040Z,58.93
2019-02-22T05:49:45.708Z,52.40
2019-02-22T05:52:15.368Z,44.40
2019-02-22T05:54:45.058Z,28.57
2019-02-22T05:57:14.767Z,43.53
2019-02-22T05:59:44.464Z,42.60
2019-02-22T06:02:14.739Z,68.47
2019-02-22T06:04:44.373Z,60.53
2019-02-22T06:07:14.680Z,69.53
2019-02-22T06:09:44.421Z,70.10
2019-02-22T06:12:14.061Z,75.57
2019-02-22T06:14:45.280Z,55.60
2019-02-22T06:17:15.142Z,114.37
2019-02-22T06:19:44.784Z,71.33
2019-02-22T06:22:14.336Z,74.33
2019-02-22T06:24:44.000Z,59.77
2019-02-22T06:27:13.660Z,57.10
2019-02-22T06:29:43.223Z,93.80
2019-02-22T06:32:12.761Z,73.70
2019-02-22T06:34:42.303Z,68.53
2019-02-22T06:37:11.980Z,60.43
2019-02-22T06:39:41.695Z,50.17
2019-02-22T06:42:11.224Z,44.20
2019-02-22T06:44:40.802Z,50.23
2019-02-22T06:47:10.384Z,49.50
2019-02-22T06:49:39.985Z,35.00
2019-02-22T06:52:09.531Z,60.00
2019-02-22T06:54:39.076Z,175.80
2019-02-22T06:57:08.709Z,50.53
2019-02-22T06:59:38.238Z,35.27
2019-02-22T07:02:07.924Z,51.20
2019-02-22T07:04:37.460Z,55.30
2019-02-22T07:07:07.135Z,42.33
2019-02-22T07:09:36.671Z,39.20
2019-02-22T07:12:16.565Z,32.40
2019-02-22T07:14:46.134Z,38.33
2019-02-22T07:17:15.859Z,76.80
2019-02-22T07:19:45.382Z,48.60
2019-02-22T07:22:15.113Z,40.63
2019-02-22T07:24:44.761Z,45.63
2019-02-22T07:27:14.403Z,38.80
2019-02-22T07:29:43.971Z,36.67
2019-02-22T07:32:13.497Z,53.00
2019-02-22T07:34:43.092Z,53.60
2019-02-22T07:37:12.758Z,35.53
2019-02-22T07:39:42.359Z,83.97
2019-02-22T07:42:11.949Z,47.50
2019-02-22T07:44:41.691Z,49.70
2019-02-22T07:47:11.334Z,101.70
2019-02-22T07:49:40.889Z,99.53
2019-02-22T07:52:10.610Z,107.50
2019-02-22T07:54:40.225Z,92.90
2019-02-22T07:57:09.818Z,109.00
2019-02-22T07:59:39.468Z,104.37
2019-02-22T08:02:09.242Z,61.97
2019-02-22T08:04:38.894Z,59.00
2019-02-22T08:07:08.441Z,49.00
2019-02-22T08:09:38.111Z,48.53
2019-02-22T08:12:07.717Z,54.27
2019-02-22T08:14:37.559Z,48.50
2019-02-22T08:17:07.246Z,76.07
2019-02-22T08:19:36.821Z,51.43
2019-02-22T08:22:06.511Z,34.13
2019-02-22T08:24:36.130Z,54.03
2019-02-22T08:27:05.834Z,74.27
2019-02-22T08:29:38.144Z,77.57
2019-02-22T08:32:06.926Z,34.57
2019-02-22T08:34:36.494Z,38.20
2019-02-22T08:37:06.212Z,35.23
2019-02-22T08:39:35.926Z,35.63
2019-02-22T08:42:05.565Z,31.63
2019-02-22T08:44:35.354Z,93.23
2019-02-22T08:47:04.912Z,39.97
2019-02-22T08:49:34.551Z,88.40
2019-02-22T08:52:04.206Z,117.47
2019-02-22T08:54:33.869Z,72.87
2019-02-22T08:57:03.623Z,49.77
2019-02-22T08:59:33.286Z,54.60
2019-02-22T09:02:03.044Z,40.23
2019-02-22T09:04:32.710Z,41.87
2019-02-22T09:07:02.270Z,53.33
2019-02-22T09:09:31.817Z,50.37
2019-02-22T09:12:01.542Z,50.83
2019-02-22T09:14:31.102Z,38.33
2019-02-22T09:17:00.811Z,48.13
2019-02-22T09:19:30.419Z,39.20
2019-02-22T09:21:59.974Z,56.53
2019-02-22T09:24:29.608Z,44.40
2019-02-22T09:26:59.174Z,33.27
2019-02-22T09:29:28.742Z,28.33
2019-02-22T09:31:58.364Z,37.30
2019-02-22T09:34:27.916Z,37.17
2019-02-22T09:36:57.551Z,37.30
2019-02-22T09:39:27.086Z,38.20
2019-02-22T09:41:56.723Z,45.90
2019-02-22T09:44:26.290Z,34.43
2019-02-22T09:46:55.977Z,30.83
2019-02-22T09:49:25.553Z,33.10
2019-02-22T09:51:55.285Z,31.33
2019-02-22T09:54:24.967Z,41.70
2019-02-22T09:56:54.693Z,32.93
2019-02-22T09:59:24.234Z,32.00
2019-02-22T10:01:53.761Z,42.80
2019-02-22T10:04:23.358Z,39.47
2019-02-22T10:06:53.007Z,45.57
2019-02-22T10:09:22.567Z,40.57
2019-02-22T10:11:52.097Z,34.30
2019-02-22T10:14:21.762Z,46.57
2019-02-22T10:16:51.440Z,35.17
2019-02-22T10:19:21.000Z,29.77
2019-02-22T10:21:50.680Z,29.30
2019-02-22T10:24:20.316Z,33.33
2019-02-22T10:26:49.899Z,34.97
2019-02-22T10:29:19.456Z,36.30
2019-02-22T10:31:49.189Z,39.17
2019-02-22T10:34:18.802Z,34.47
2019-02-22T10:36:48.342Z,29.47
2019-02-22T10:39:17.964Z,41.60
2019-02-22T10:41:49.747Z,34.50
2019-02-22T10:44:19.280Z,37.33
2019-02-22T10:46:48.994Z,35.57
2019-02-22T10:49:18.587Z,27.97
2019-02-22T10:51:48.154Z,31.20
2019-02-22T10:54:17.696Z,43.67
2019-02-22T10:56:47.246Z,54.03
2019-02-22T10:59:16.934Z,53.23
2019-02-22T11:01:46.537Z,68.23
2019-02-22T11:04:16.130Z,48.93
2019-02-22T11:06:45.770Z,51.50
2019-02-22T11:09:16.426Z,52.37
2019-02-22T11:11:46.191Z,50.90
2019-02-22T11:14:15.730Z,50.10
2019-02-22T11:16:45.630Z,60.53
2019-02-22T11:19:15.181Z,59.60
2019-02-22T11:21:44.850Z,49.23
2019-02-22T11:24:14.454Z,57.70
2019-02-22T11:26:44.035Z,50.23
2019-02-22T11:29:13.600Z,58.97
2019-02-22T11:31:43.185Z,61.03
2019-02-22T11:34:15.451Z,49.90
2019-02-22T11:36:45.069Z,50.30
2019-02-22T11:39:14.689Z,44.93
2019-02-22T11:41:44.250Z,60.87
2019-02-22T11:44:14.889Z,60.00
2019-02-22T11:46:44.520Z,50.43
2019-02-22T11:49:14.290Z,51.00
2019-02-22T11:51:43.852Z,52.00
2019-02-22T11:54:13.506Z,50.17
2019-02-22T11:56:43.130Z,55.53
2019-02-22T11:59:12.703Z,51.43
2019-02-22T12:01:42.267Z,46.77
2019-02-22T12:04:11.817Z,53.70
2019-02-22T12:06:42.392Z,42.43
2019-02-22T12:09:11.977Z,54.00
2019-02-22T12:11:42.106Z,45.43
2019-02-22T12:14:11.657Z,50.27
2019-02-22T12:16:41.278Z,47.67
2019-02-22T12:19:10.933Z,43.37
2019-02-22T12:21:40.661Z,43.60
2019-02-22T12:24:10.238Z,46.17
2019-02-22T12:26:39.889Z,56.53
2019-02-22T12:29:09.810Z,46.37
2019-02-22T12:31:39.564Z,56.37
2019-02-22T12:34:09.145Z,61.80
2019-02-22T12:36:38.802Z,41.67
2019-02-22T12:39:08.493Z,44.70
2019-02-22T12:41:38.201Z,46.63
2019-02-22T12:44:07.771Z,61.80
2019-02-22T12:46:37.391Z,69.80
2019-02-22T12:49:07.127Z,60.67
2019-02-22T12:51:36.811Z,54.70
2019-02-22T12:54:06.416Z,51.73
2019-02-22T12:59:07.915Z,42.70
2019-02-22T13:01:37.603Z,48.97
2019-02-22T13:04:07.206Z,49.83
2019-02-22T13:06:36.833Z,45.67
2019-02-22T13:09:07.533Z,62.17
2019-02-22T13:11:37.707Z,51.00
2019-02-22T13:14:07.505Z,55.80
2019-02-22T13:16:37.078Z,61.80
2019-02-22T13:19:06.717Z,58.40
2019-02-22T13:21:36.377Z,56.40
2019-02-22T13:24:06.140Z,56.50
2019-02-22T13:26:35.783Z,53.87
2019-02-22T13:29:05.459Z,62.67
2019-02-22T13:31:35.082Z,59.30
2019-02-22T13:34:04.881Z,95.87
2019-02-22T13:36:34.471Z,103.83
2019-02-22T13:39:04.915Z,78.40
2019-02-22T13:41:34.562Z,94.63
2019-02-22T13:44:04.193Z,56.53
2019-02-22T13:46:33.870Z,76.00
2019-02-22T13:49:03.443Z,60.47
2019-02-22T13:51:34.040Z,78.83
2019-02-22T13:54:03.783Z,77.77
2019-02-22T13:56:33.514Z,64.97
2019-02-22T13:59:03.080Z,69.87
2019-02-22T14:01:33.761Z,61.47
2019-02-22T14:04:03.548Z,59.93
2019-02-22T14:06:33.195Z,55.83
2019-02-22T14:09:05.942Z,93.73
2019-02-22T14:11:35.471Z,92.17
2019-02-22T14:14:05.054Z,97.43
2019-02-22T14:16:34.759Z,82.70
2019-02-22T14:19:04.329Z,96.37
2019-02-22T14:21:35.070Z,105.47
2019-02-22T14:24:04.947Z,84.80
2019-02-22T14:26:34.493Z,94.10
2019-02-22T14:29:04.125Z,88.63
2019-02-22T14:31:36.286Z,85.23
2019-02-22T14:34:05.964Z,75.70
2019-02-22T14:36:35.553Z,80.40
2019-02-22T14:39:05.743Z,82.17
2019-02-22T14:41:37.400Z,86.83
2019-02-22T14:44:06.782Z,109.17
2019-02-22T14:46:36.772Z,102.80
2019-02-22T14:49:06.428Z,109.67
2019-02-22T14:51:35.986Z,112.27
2019-02-22T14:54:05.535Z,108.23
2019-02-22T14:56:35.172Z,109.80
2019-02-22T14:59:05.074Z,129.53
2019-02-22T15:01:35.625Z,89.70
2019-02-22T15:04:06.079Z,117.43
2019-02-22T15:06:35.911Z,101.37
2019-02-22T15:09:06.086Z,97.17
2019-02-22T15:11:35.762Z,100.03
2019-02-22T15:14:05.302Z,105.23
2019-02-22T15:16:53.581Z,96.97
2019-02-22T15:19:23.152Z,92.73
2019-02-22T15:21:52.828Z,71.73
2019-02-22T15:24:22.452Z,78.37
2019-02-22T15:26:54.054Z,76.23
2019-02-22T15:29:23.523Z,82.80
2019-02-22T15:31:53.241Z,100.20
2019-02-22T15:34:23.018Z,67.77
2019-02-22T15:36:55.698Z,61.90
2019-02-22T15:39:25.407Z,52.10
2019-02-22T15:41:55.142Z,62.20
2019-02-22T15:44:24.710Z,65.53
2019-02-22T15:46:54.339Z,57.70
2019-02-22T15:49:23.940Z,54.53
2019-02-22T15:51:53.652Z,56.80
2019-02-22T15:54:23.304Z,57.60
2019-02-22T15:56:52.870Z,51.03
2019-02-22T15:59:22.598Z,49.53
2019-02-22T16:01:55.615Z,55.80
2019-02-22T16:04:44.987Z,50.57
2019-02-22T16:07:13.796Z,49.63
2019-02-22T16:09:43.363Z,45.00
2019-02-22T16:12:12.960Z,51.03
2019-02-22T16:14:42.530Z,57.00
2019-02-22T16:17:12.186Z,52.37
2019-02-22T16:19:41.854Z,48.80
2019-02-22T16:22:11.491Z,49.83
2019-02-22T16:24:41.270Z,58.03
2019-02-22T16:27:10.916Z,47.93
2019-02-22T16:29:40.698Z,53.03
2019-02-22T16:32:22.405Z,50.87
2019-02-22T16:34:52.090Z,48.43
2019-02-22T16:37:21.716Z,45.43
2019-02-22T16:39:52.504Z,43.17
2019-02-22T16:42:22.294Z,40.63
2019-02-22T16:44:52.060Z,41.33
2019-02-22T16:47:21.810Z,44.37
2019-02-22T16:49:51.485Z,40.77
2019-02-22T16:52:21.213Z,38.07
2019-02-22T16:54:50.871Z,38.43
2019-02-22T16:57:20.543Z,39.77
2019-02-22T16:59:50.214Z,36.83
2019-02-22T17:02:19.858Z,38.63
2019-02-22T17:04:49.543Z,40.40
2019-02-22T17:07:19.197Z,37.67
2019-02-22T17:09:49.103Z,41.90
2019-02-22T17:12:18.852Z,37.37
2019-02-22T17:14:48.538Z,38.53
2019-02-22T17:17:18.134Z,37.40
2019-02-22T17:19:48.053Z,40.43
2019-02-22T17:22:17.725Z,39.97
2019-02-22T17:24:47.370Z,48.73
2019-02-22T17:27:16.930Z,35.20
2019-02-22T17:29:46.473Z,30.43
2019-02-22T17:32:16.077Z,16.33
2019-02-22T17:34:45.788Z,13.27
2019-02-22T17:37:15.360Z,9.97
2019-02-22T17:39:45.957Z,6.80
2019-02-22T17:42:15.723Z,3.43
2019-02-22T17:44:45.411Z,4.43
2019-02-22T17:47:14.962Z,2.47
2019-02-22T17:49:44.809Z,2.10
2019-02-22T17:52:14.481Z,4.33
2019-02-22T17:54:44.017Z,2.67
2019-02-22T17:57:13.654Z,2.17
2019-02-22T17:59:43.271Z,2.43
2019-02-22T18:02:12.852Z,3.30
2019-02-22T18:04:42.587Z,2.77
2019-02-22T18:07:12.116Z,3.50
2019-02-22T18:09:41.730Z,2.67
2019-02-22T18:12:11.301Z,2.93
2019-02-22T18:14:41.094Z,2.60
2019-02-22T18:17:10.730Z,1.40
2019-02-22T18:19:40.422Z,1.83
2019-02-22T18:22:09.979Z,2.00
2019-02-22T18:24:39.537Z,4.27
2019-02-22T18:27:12.334Z,2.23
2019-02-22T18:29:42.268Z,2.33
2019-02-22T18:32:12.357Z,2.27
2019-02-22T18:34:42.577Z,2.37
2019-02-22T18:37:12.211Z,2.00
2019-02-22T18:39:41.758Z,1.90
2019-02-22T18:42:11.344Z,2.07
2019-02-22T18:44:40.905Z,1.60
2019-02-22T18:47:19.054Z,3.27
2019-02-22T18:49:41.891Z,1.37
2019-02-22T18:52:11.728Z,3.30
2019-02-22T18:54:41.427Z,1.60
2019-02-22T18:57:10.995Z,1.60
2019-02-22T18:59:40.573Z,2.10
2019-02-22T19:02:10.250Z,1.67
2019-02-22T19:04:39.802Z,1.43
2019-02-22T19:07:09.426Z,1.67
2019-02-22T19:09:38.970Z,2.80
2019-02-22T19:12:08.529Z,2.37
2019-02-22T19:14:38.100Z,1.73
2019-02-22T19:17:07.672Z,2.30
2019-02-22T19:19:37.291Z,1.07
2019-02-22T19:22:07.070Z,3.43
2019-02-22T19:24:36.647Z,3.33
2019-02-22T19:27:06.385Z,4.40
2019-02-22T19:29:35.980Z,2.60
2019-02-22T19:32:05.588Z,2.50
2019-02-22T19:34:35.348Z,3.70
2019-02-22T19:37:04.972Z,3.50
2019-02-22T19:39:37.649Z,3.87
2019-02-22T19:42:07.167Z,5.20
2019-02-22T19:44:36.741Z,3.23
2019-02-22T19:47:06.390Z,4.73
2019-02-22T19:49:37.697Z,3.27
2019-02-22T19:52:08.169Z,3.17
2019-02-22T19:54:37.755Z,2.13
2019-02-22T19:57:07.324Z,3.50
2019-02-22T19:59:36.919Z,2.90
2019-02-22T20:02:06.490Z,2.70
2019-02-22T20:04:36.142Z,2.90
2019-02-22T20:07:05.721Z,3.70
2019-02-22T20:09:35.355Z,3.50
2019-02-22T20:12:04.923Z,3.70
2019-02-22T20:14:34.469Z,5.80
2019-02-22T20:17:04.049Z,3.80
2019-02-22T20:19:33.667Z,8.33
2019-02-22T20:22:03.258Z,3.83
2019-02-22T20:24:32.937Z,4.20
2019-02-22T20:27:02.492Z,4.00
2019-02-22T20:29:32.123Z,6.10
2019-02-22T20:32:01.779Z,5.50
2019-02-22T20:34:31.370Z,5.60
2019-02-22T20:37:01.027Z,4.70
2019-02-22T20:39:30.600Z,4.77
2019-02-22T20:42:00.246Z,5.17
2019-02-22T20:44:29.804Z,8.33
2019-02-22T20:46:59.365Z,6.30
2019-02-22T20:49:28.944Z,6.60
2019-02-22T20:51:58.519Z,10.03
2019-02-22T20:54:28.228Z,2.80
2019-02-22T20:57:01.162Z,5.67
2019-02-22T20:59:30.861Z,2.73
2019-02-22T21:02:00.980Z,2.90
2019-02-22T21:04:30.716Z,1.53
2019-02-22T21:07:00.358Z,3.80
2019-02-22T21:09:30.042Z,2.20
2019-02-22T21:11:59.857Z,2.43
2019-02-22T21:14:29.519Z,3.67
2019-02-22T21:16:59.089Z,2.03
2019-02-22T21:19:28.800Z,1.80
2019-02-22T21:21:58.486Z,1.80
2019-02-22T21:24:28.196Z,2.43
2019-02-22T21:26:57.858Z,2.93
2019-02-22T21:29:27.522Z,2.40
2019-02-22T21:31:57.096Z,3.40
2019-02-22T21:34:26.668Z,6.70
2019-02-22T21:36:56.305Z,1.73
2019-02-22T21:39:25.843Z,2.00
2019-02-22T21:41:55.370Z,2.90
2019-02-22T21:44:25.013Z,3.83
2019-02-22T21:46:54.550Z,2.43
2019-02-22T21:49:24.201Z,2.77
2019-02-22T21:51:53.819Z,2.33
2019-02-22T21:54:23.369Z,2.43
2019-02-22T21:56:52.920Z,1.43
2019-02-22T21:59:22.493Z,2.97
2019-02-22T22:01:52.025Z,1.87
2019-02-22T22:04:21.565Z,2.13
2019-02-22T22:06:51.228Z,5.40
2019-02-22T22:09:20.936Z,6.27
2019-02-22T22:11:50.471Z,2.77
2019-02-22T22:14:20.074Z,2.73
2019-02-22T22:16:49.617Z,5.03
2019-02-22T22:19:19.135Z,2.53
2019-02-22T22:21:48.764Z,1.40
2019-02-22T22:24:18.359Z,2.63
2019-02-22T22:26:47.928Z,3.13
2019-02-22T22:29:17.643Z,2.17
2019-02-22T22:31:47.180Z,2.77
2019-02-22T22:34:16.735Z,2.40
2019-02-22T22:36:46.312Z,3.83
2019-02-22T22:39:15.895Z,1.80
2019-02-22T22:41:45.643Z,8.53
2019-02-22T22:44:15.224Z,2.10
2019-02-22T22:46:44.847Z,2.50
2019-02-22T22:49:14.389Z,3.23
2019-02-22T22:51:43.975Z,12.60
2019-02-22T22:54:13.646Z,4.30
2019-02-22T22:56:43.291Z,1.60
2019-02-22T22:59:12.842Z,2.37
2019-02-22T23:01:42.614Z,4.03
2019-02-22T23:04:12.204Z,3.60
2019-02-22T23:06:41.799Z,2.93
2019-02-22T23:09:19.330Z,2.73
2019-02-22T23:11:48.996Z,3.10
2019-02-22T23:14:18.545Z,2.30
2019-02-22T23:16:48.347Z,2.80
2019-02-22T23:19:17.911Z,3.53
2019-02-22T23:21:47.517Z,1.60
2019-02-22T23:24:17.096Z,2.63
2019-02-22T23:26:46.747Z,2.97
2019-02-22T23:29:16.293Z,3.03
2019-02-22T23:31:45.901Z,4.10
2019-02-22T23:34:15.502Z,4.93
2019-02-22T23:36:45.069Z,11.37
2019-02-22T23:39:14.583Z,7.70
2019-02-22T23:41:44.313Z,4.23
2019-02-22T23:44:13.825Z,4.20
2019-02-22T23:46:43.355Z,6.70
2019-02-22T23:49:13.506Z,3.07
2019-02-22T23:51:43.064Z,6.50
2019-02-22T23:54:12.634Z,5.93
2019-02-22T23:56:42.242Z,5.70
2019-02-22T23:59:11.787Z,3.57
